Helt, Indiana
Current Conditions -  °F | °C
As of 12:35 PM on Tuesday 21 Oct 2014 (Local Time) from KPRG Reporting Station
Broken Clouds Broken Clouds  
Wind Chill: 56°   Ceiling: 4400
Heat Index: 56°   Visibility: 10mi
Dew Point: 45°   Wind: 6mph
Humidity: 68%   Direction: 20°NNE
Pressure: 30.13"   Gusts: NA
Location:  39.7561°N, 87.4866°W
Report Text: KPRG 211635Z AUTO 02005KT 10SM SCT034 BKN044 13/07 A3013 RMK AO2 T01310073
Loading
Personal Weather Stations






























Interactive Weather Map
Tropical Storm Tracking
New forecast layout! Learn more

10-Day Weather Forecast

Advertisements
Track Severe Weather on mobile